Time;durP1;ratioP1;P1;durP2;ratioP2;P2;SDS_P1;SDS_P2;PMS_P1;PMS_P2;Temp;Humidity;BMP_temperature;BMP_pressure;BME280_temperature;BME280_humidity;BME280_pressure;Samples;Min_cycle;Max_cycle;Signal;HPM_P1;HPM_P2
2022/01/01 00:05:55;;;;;;;8.20;6.50;;;;;;;9.16;94.45;98412.03;421720;1309;97951;-40
2022/01/01 00:16:03;;;;;;;7.70;5.70;;;;;;;9.20;94.54;98410.34;421651;1309;108947;-42
2022/01/01 00:26:10;;;;;;;8.90;6.20;;;;;;;9.24;94.66;98423.05;420191;1312;97713;-41
2022/01/01 00:36:18;;;;;;;7.10;4.80;;;;;;;9.28;95.06;98425.27;420443;1312;111033;-41
2022/01/01 00:56:32;;;;;;;7.50;5.30;;;;;;;9.35;95.40;98440.19;420385;1312;98162;-42
2022/01/01 01:06:39;;;;;;;8.30;6.10;;;;;;;9.39;95.76;98447.91;420332;1312;109140;-41
2022/01/01 01:26:53;;;;;;;7.00;4.50;;;;;;;9.42;96.31;98483.02;420263;1312;111448;-40
2022/01/01 01:37:00;;;;;;;5.90;4.40;;;;;;;9.42;96.45;98498.28;420372;1311;108943;-41
2022/01/01 01:47:14;;;;;;;5.80;4.30;;;;;;;9.43;96.88;98509.27;420272;1312;97537;-40
2022/01/01 01:57:21;;;;;;;7.20;4.60;;;;;;;9.43;96.93;98520.11;420357;1312;108880;-41
2022/01/01 02:07:28;;;;;;;7.00;4.10;;;;;;;9.43;96.84;98528.07;420683;1311;98593;-41
2022/01/01 02:17:35;;;;;;;4.50;2.80;;;;;;;9.42;97.24;98541.65;420961;1302;111400;-41
2022/01/01 02:27:43;;;;;;;5.30;2.90;;;;;;;9.41;97.32;98548.77;420391;1312;108157;-39
2022/01/01 02:37:50;;;;;;;3.10;2.70;;;;;;;9.41;97.38;98552.88;420547;1312;97982;-41
2022/01/01 02:47:57;;;;;;;4.60;3.40;;;;;;;9.42;97.50;98555.61;420393;1312;108095;-42
2022/01/01 02:58:03;;;;;;;7.40;4.40;;;;;;;9.41;97.33;98557.46;420330;1312;97959;-40
2022/01/01 03:08:10;;;;;;;7.10;4.40;;;;;;;9.42;97.46;98563.66;420328;1313;111110;-41
2022/01/01 03:18:17;;;;;;;7.20;4.50;;;;;;;9.40;97.63;98567.20;420162;1312;108904;-42
2022/01/01 03:28:24;;;;;;;8.90;5.80;;;;;;;9.42;97.88;98573.64;420248;1312;98103;-40
2022/01/01 03:38:31;;;;;;;4.10;3.40;;;;;;;9.45;97.83;98580.42;420255;1312;108978;-42
2022/01/01 03:48:39;;;;;;;6.00;4.00;;;;;;;9.48;97.84;98579.80;420396;1312;97958;-39
2022/01/01 03:58:46;;;;;;;4.80;3.50;;;;;;;9.51;97.93;98588.85;420208;1312;111634;-39
2022/01/01 04:08:53;;;;;;;4.60;4.10;;;;;;;9.53;98.01;98590.23;420336;1312;109022;-41
2022/01/01 04:18:58;;;;;;;3.90;2.80;;;;;;;9.57;98.13;98593.16;420199;1312;97978;-40
2022/01/01 04:29:06;;;;;;;4.20;3.40;;;;;;;9.60;98.37;98602.78;420257;1312;110588;-40
2022/01/01 04:39:11;;;;;;;4.70;3.70;;;;;;;9.62;98.38;98600.27;420409;1312;97935;-41
2022/01/01 04:49:18;;;;;;;5.70;3.30;;;;;;;9.63;98.55;98615.12;420163;1312;111143;-40
2022/01/01 04:59:25;;;;;;;3.00;2.80;;;;;;;9.66;98.56;98615.63;419052;1314;108913;-41
2022/01/01 05:09:32;;;;;;;3.40;3.10;;;;;;;9.70;98.59;98632.49;420337;1312;97282;-41
2022/01/01 05:19:39;;;;;;;3.20;3.00;;;;;;;9.73;98.62;98640.87;420140;1312;109184;-40
2022/01/01 05:29:46;;;;;;;3.60;3.30;;;;;;;9.73;98.57;98657.28;420048;1312;97942;-40
2022/01/01 05:39:53;;;;;;;4.60;4.10;;;;;;;9.75;98.58;98675.50;420253;1312;111087;-41
2022/01/01 05:50:01;;;;;;;6.40;4.40;;;;;;;9.75;98.54;98679.63;418734;1314;108966;-40
2022/01/01 06:00:11;;;;;;;5.20;3.70;;;;;;;9.77;98.52;98689.07;420182;1312;97572;-41
2022/01/01 06:10:19;;;;;;;5.00;4.00;;;;;;;9.76;98.34;98692.54;420174;1312;109081;-40
2022/01/01 06:20:24;;;;;;;5.40;4.50;;;;;;;9.76;98.41;98700.18;420027;1313;98045;-40
2022/01/01 06:30:42;;;;;;;5.50;4.00;;;;;;;9.76;98.30;98726.65;420150;1312;111464;-40
2022/01/01 06:40:49;;;;;;;5.10;4.20;;;;;;;9.74;98.15;98726.53;414745;1314;5611846;-40
2022/01/01 06:50:56;;;;;;;7.00;5.10;;;;;;;9.74;98.15;98739.73;420163;1312;97939;-41
2022/01/01 07:01:04;;;;;;;5.80;4.70;;;;;;;9.75;98.13;98752.60;420068;1312;108400;-41
2022/01/01 07:21:19;;;;;;;7.90;5.80;;;;;;;9.77;98.02;98766.34;420108;1312;111185;-39
2022/01/01 07:31:26;;;;;;;7.10;5.50;;;;;;;9.75;97.96;98778.48;420181;1312;108841;-40
2022/01/01 07:41:34;;;;;;;8.90;5.40;;;;;;;9.74;97.86;98794.45;420277;1312;98037;-39
2022/01/01 07:51:41;;;;;;;6.60;4.30;;;;;;;9.72;97.96;98804.58;420213;1312;108948;-41
2022/01/01 08:01:49;;;;;;;6.90;4.10;;;;;;;9.73;98.07;98814.65;420323;1312;97987;-40
2022/01/01 08:11:57;;;;;;;10.70;6.10;;;;;;;9.77;98.13;98826.75;420370;1312;110323;-39
2022/01/01 08:32:12;;;;;;;6.30;4.20;;;;;;;9.88;97.98;98831.86;419959;1312;97556;-42
2022/01/01 08:42:19;;;;;;;6.60;4.10;;;;;;;9.99;97.77;98829.81;420075;1312;108888;-40
2022/01/01 08:52:28;;;;;;;5.60;4.60;;;;;;;10.11;97.70;98843.84;420106;1312;96674;-39
2022/01/01 09:02:35;;;;;;;8.20;4.90;;;;;;;10.11;97.45;98854.08;420253;1313;111375;-41
2022/01/01 09:12:43;;;;;;;14.60;7.90;;;;;;;10.04;97.32;98859.41;420322;1312;108954;-41
2022/01/01 09:22:50;;;;;;;11.50;6.60;;;;;;;10.04;97.14;98875.79;420403;1312;97976;-40
2022/01/01 09:32:57;;;;;;;7.90;5.00;;;;;;;10.08;97.04;98893.34;419937;1312;108965;-41
2022/01/01 09:43:06;;;;;;;10.90;7.30;;;;;;;10.08;96.99;98904.52;420009;1312;98055;-41
2022/01/01 09:53:12;;;;;;;7.90;5.70;;;;;;;10.07;96.90;98909.29;420281;1312;110917;-42
2022/01/01 10:03:26;;;;;;;8.50;5.80;;;;;;;10.00;96.83;98909.58;420370;1312;109173;-42
2022/01/01 10:13:36;;;;;;;9.60;4.40;;;;;;;9.97;96.91;98916.93;420114;1312;98004;-40
2022/01/01 10:23:44;;;;;;;11.90;6.60;;;;;;;9.94;96.94;98921.82;420203;1312;108929;-40
2022/01/01 10:33:51;;;;;;;5.20;3.50;;;;;;;9.95;97.09;98928.05;420304;1316;97951;-39
2022/01/01 10:44:07;;;;;;;10.60;6.00;;;;;;;9.96;96.93;98935.02;420329;1312;111238;-42
2022/01/01 10:54:26;;;;;;;7.00;5.30;;;;;;;9.89;96.94;98935.80;420253;1312;109275;-40
2022/01/01 11:04:35;;;;;;;18.70;8.20;;;;;;;9.89;96.96;98931.00;420129;1312;97950;-40
2022/01/01 11:14:42;;;;;;;13.20;5.40;;;;;;;9.93;96.99;98938.44;420284;1312;107967;-40
2022/01/01 11:24:50;;;;;;;10.30;4.80;;;;;;;9.92;97.17;98948.36;420263;1313;98006;-41
2022/01/01 11:34:59;;;;;;;12.60;7.20;;;;;;;9.97;97.20;98944.11;420301;1312;111093;-40
2022/01/01 11:45:08;;;;;;;14.70;7.50;;;;;;;10.10;97.24;98942.66;420126;1312;108884;-40
2022/01/01 11:55:19;;;;;;;11.70;6.70;;;;;;;10.19;97.33;98933.81;420281;1312;96709;-41
2022/01/01 12:05:27;;;;;;;10.30;5.60;;;;;;;10.15;97.13;98938.02;420094;1317;108904;-39
2022/01/01 12:15:36;;;;;;;9.70;4.80;;;;;;;10.10;96.81;98950.39;420158;1312;97984;-40
2022/01/01 12:25:43;;;;;;;9.50;6.00;;;;;;;10.05;96.75;98954.91;420201;1312;111023;-39
2022/01/01 12:35:48;;;;;;;19.00;10.70;;;;;;;10.00;96.59;98962.54;420189;1312;108847;-40
2022/01/01 12:45:57;;;;;;;9.90;6.20;;;;;;;10.00;96.49;98958.55;420030;1312;98105;-40
2022/01/01 12:56:03;;;;;;;12.50;7.80;;;;;;;9.93;96.38;98977.98;420311;1315;108379;-40
2022/01/01 13:06:10;;;;;;;32.90;12.30;;;;;;;9.86;96.39;98985.73;420291;1317;98186;-41
2022/01/01 13:16:17;;;;;;;35.80;14.80;;;;;;;9.90;96.60;98997.63;420355;1311;111109;-40
2022/01/01 13:26:24;;;;;;;23.60;12.50;;;;;;;9.90;96.72;99015.02;420226;1312;108847;-40
2022/01/01 13:36:35;;;;;;;16.00;9.50;;;;;;;9.81;96.72;99024.61;420033;1312;97977;-39
2022/01/01 13:46:42;;;;;;;11.70;8.20;;;;;;;9.69;96.99;99036.61;420126;1313;107929;-40
2022/01/01 13:56:54;;;;;;;8.70;4.80;;;;;;;9.63;97.17;99040.38;420189;1312;98604;-39
2022/01/01 14:07:11;;;;;;;48.90;24.60;;;;;;;9.54;97.27;99049.02;420273;1312;110796;-40
2022/01/01 14:17:18;;;;;;;8.60;6.20;;;;;;;9.48;97.34;99054.94;420317;1313;109214;-39
2022/01/01 14:27:26;;;;;;;8.50;5.40;;;;;;;9.46;97.47;99065.86;420264;1313;97859;-39
2022/01/01 14:37:42;;;;;;;6.70;5.80;;;;;;;9.46;97.53;99075.41;416224;1313;5536117;-40
2022/01/01 14:47:55;;;;;;;8.70;6.10;;;;;;;9.43;97.45;99090.92;420176;1313;97950;-40
2022/01/01 14:58:03;;;;;;;10.20;6.90;;;;;;;9.38;97.36;99111.17;420319;1316;111213;-40
2022/01/01 15:08:12;;;;;;;20.30;11.20;;;;;;;9.39;97.55;99125.34;420319;1317;108947;-41
2022/01/01 15:18:20;;;;;;;33.70;15.90;;;;;;;9.40;97.55;99141.61;420269;1317;98601;-43
2022/01/01 15:28:28;;;;;;;31.50;17.30;;;;;;;9.41;97.59;99149.66;420428;1316;108958;-40
2022/01/01 16:09:02;;;;;;;32.30;15.00;;;;;;;9.41;97.39;99179.50;420374;1316;97964;-42
2022/01/01 16:19:11;;;;;;;53.00;28.30;;;;;;;9.36;97.31;99187.20;420184;1314;108613;-40
2022/01/01 16:29:18;;;;;;;18.90;13.10;;;;;;;9.28;97.29;99191.05;420231;1313;97967;-40
2022/01/01 16:39:25;;;;;;;26.40;17.20;;;;;;;9.20;97.28;99192.91;420277;1312;111149;-41
2022/01/01 16:49:34;;;;;;;27.80;19.40;;;;;;;9.17;97.37;99205.71;419949;1313;107885;-43
2022/01/01 16:59:42;;;;;;;22.40;15.80;;;;;;;9.14;97.40;99207.27;420065;1313;98043;-42
2022/01/01 17:09:51;;;;;;;29.30;18.70;;;;;;;9.09;97.38;99210.52;420270;1313;108886;-39
2022/01/01 17:20:05;;;;;;;20.00;11.60;;;;;;;9.00;97.47;99218.86;420443;1312;97942;-41
2022/01/01 17:30:12;;;;;;;16.60;8.90;;;;;;;8.94;97.60;99227.38;419944;1312;110741;-40
2022/01/01 17:40:19;;;;;;;25.20;14.80;;;;;;;8.91;97.77;99240.65;420265;1312;107919;-40
2022/01/01 17:50:27;;;;;;;10.70;7.10;;;;;;;8.87;97.89;99248.13;420172;1312;98060;-40
2022/01/01 18:00:33;;;;;;;10.70;6.20;;;;;;;8.82;98.10;99253.64;419932;1312;109389;-41
2022/01/01 18:10:43;;;;;;;8.40;4.50;;;;;;;8.81;98.25;99262.90;420308;1312;97574;-41
2022/01/01 18:20:53;;;;;;;7.50;5.80;;;;;;;8.80;98.11;99271.50;420094;1312;111027;-40
2022/01/01 18:41:06;;;;;;;15.40;10.80;;;;;;;8.76;98.18;99282.45;420418;1312;98288;-40
2022/01/01 18:51:15;;;;;;;23.30;13.90;;;;;;;8.81;98.11;99293.81;420028;1314;108964;-40
2022/01/01 19:01:23;;;;;;;40.10;24.40;;;;;;;8.88;98.21;99302.29;420045;1312;98524;-40
2022/01/01 19:11:31;;;;;;;27.20;17.30;;;;;;;8.89;98.02;99307.55;420245;1312;111124;-40
2022/01/01 19:21:39;;;;;;;36.80;22.70;;;;;;;8.87;97.96;99316.13;420202;1314;109139;-42
2022/01/01 19:31:48;;;;;;;25.90;16.60;;;;;;;8.88;97.99;99314.23;420210;1312;98607;-40
2022/01/01 19:41:55;;;;;;;26.40;19.90;;;;;;;8.88;97.99;99323.76;420175;1312;109036;-40
2022/01/01 19:52:02;;;;;;;27.00;13.90;;;;;;;8.91;97.98;99327.36;420103;1313;97955;-44
2022/01/01 20:02:09;;;;;;;25.50;15.30;;;;;;;8.85;97.85;99335.19;420254;1312;111065;-42
2022/01/01 20:12:17;;;;;;;42.60;24.70;;;;;;;8.82;97.92;99340.64;420350;1314;108822;-40
2022/01/01 20:22:23;;;;;;;29.00;16.40;;;;;;;8.85;97.86;99335.59;420244;1312;98022;-41
2022/01/01 20:32:30;;;;;;;17.20;11.80;;;;;;;8.86;97.94;99343.15;420254;1312;109029;-42
2022/01/01 20:42:38;;;;;;;19.50;11.40;;;;;;;8.87;97.97;99343.64;420204;1312;98011;-40
2022/01/01 20:52:45;;;;;;;15.20;11.50;;;;;;;8.90;97.92;99336.73;420367;1312;111389;-40
2022/01/01 21:02:57;;;;;;;90.30;50.10;;;;;;;8.90;97.80;99343.30;420192;1312;108837;-39
2022/01/01 21:23:16;;;;;;;43.80;25.50;;;;;;;8.92;97.73;99353.57;420116;1312;109757;-41
2022/01/01 21:33:23;;;;;;;74.10;39.30;;;;;;;8.92;97.61;99350.12;420088;1312;97955;-40
2022/01/01 21:43:29;;;;;;;93.20;37.60;;;;;;;8.87;97.82;99347.16;420181;1312;110987;-41
2022/01/01 21:53:36;;;;;;;60.40;31.80;;;;;;;8.76;97.69;99353.14;420137;1312;108456;-40
2022/01/01 22:03:43;;;;;;;45.00;26.30;;;;;;;8.71;97.64;99352.69;420323;1313;97700;-40
2022/01/01 22:13:49;;;;;;;43.70;24.10;;;;;;;8.74;97.70;99355.32;420244;1312;111189;-42
2022/01/01 22:23:56;;;;;;;48.70;26.70;;;;;;;8.75;97.68;99360.80;419978;1312;108929;-40
2022/01/01 22:34:03;;;;;;;44.00;24.60;;;;;;;8.79;97.76;99367.92;416206;1312;5506338;-40
2022/01/01 22:44:10;;;;;;;42.80;24.60;;;;;;;8.79;97.46;99359.73;420484;1312;109073;-40
2022/01/01 22:54:17;;;;;;;36.10;22.90;;;;;;;8.83;97.65;99352.04;420384;1312;97968;-41
2022/01/01 23:04:24;;;;;;;60.20;33.70;;;;;;;8.82;97.61;99354.26;420337;1312;108026;-43
2022/01/01 23:14:37;;;;;;;66.40;32.40;;;;;;;8.88;97.80;99346.27;420162;1311;97957;-40
2022/01/01 23:24:44;;;;;;;44.60;21.90;;;;;;;8.77;97.66;99340.62;420474;1312;111631;-41
2022/01/01 23:34:54;;;;;;;45.80;23.20;;;;;;;8.67;97.37;99334.09;420348;1312;108977;-41
2022/01/01 23:45:00;;;;;;;;;;;;;;;8.69;97.47;99315.00;420015;1312;99431;-40
2022/01/01 23:55:09;;;;;;;51.20;22.60;;;;;;;8.78;97.82;99303.66;420337;1312;109234;-40
